ADDS METAR Data INFO
IDs: Format: Raw Decoded Include TAF

Data at: 1959 UTC 18 Feb 2018

KRVS 181953Z 18013G19KT 10SM BKN021 OVC050 11/06 A2993 RMK AO2 PRESFR SLP141 T01110056
KRVS 181853Z 18014G25KT 10SM OVC017 10/05 A2999 RMK AO2 PK WND 17026/1818 SLP160 T01000050
KRVS 181753Z 18013G20KT 10SM OVC015 08/04 A3004 RMK AO2 SLP179 T00830039 10083 20017 58027
KRVS 181653Z 17015G25KT 10SM OVC015 08/03 A3009 RMK AO2 SLP197 T00780033
KRVS 181607Z 17011KT 10SM BKN017 08/03 A3011 RMK AO2 T00780033
KRVS 181553Z 17013G19KT 10SM FEW017 07/03 A3011 RMK AO2 SLP202 T00720033
KRVS 181453Z 17011G17KT 10SM CLR 05/03 A3012 RMK AO2 SLP207 T00500028 58008
KRVS 181407Z 17005KT 6SM BR SCT003 04/03 A3014 RMK AO2 T00390028
KRVS 181353Z 16005KT 4SM BR BKN003 04/03 A3014 RMK AO2 SLP212 T00390028
KRVS 181333Z 17006KT 4SM BR BKN004 04/03 A3015 RMK AO2 T00390028
KRVS 181323Z 17008KT 4SM BR SCT004 03/03 A3014 RMK AO2 T00330028
KRVS 181253Z 17006KT 9SM CLR 04/03 A3014 RMK AO2 SLP211 T00440028
KRVS 181200Z AUTO 18003KT 7SM CLR 02/02 A3014 RMK AO2 T00220017
KRVS 181153Z AUTO 18003KT 2 1/2SM BR CLR 02/01 A3015 RMK AO2 SLP214 I6000 T00170011 10028 21006 56011
KRVS 181149Z AUTO 18003KT 1 3/4SM BR CLR 02/01 A3015 RMK AO2
KRVS 181122Z AUTO 00000KT 2 1/2SM BR CLR 01/00 A3016 RMK AO2 T00110000
KRVS 181104Z AUTO 00000KT 1SM BR CLR 01/00 A3016 RMK AO2 T00060000
KRVS 181053Z AUTO 19003KT 1/2SM FG CLR 00/M01 A3016 RMK AO2 SLP221 T00001006
KRVS 181036Z AUTO 00000KT 1/2SM FG CLR 01/M01 A3016 RMK AO2 T00061006
KRVS 181027Z AUTO 00000KT 1 1/2SM BR CLR M01/M01 A3017 RMK AO2 T10061006
KRVS 181012Z AUTO 18003KT 3SM BR CLR 02/01 A3017 RMK AO2 T00170006
KRVS 180953Z AUTO 00000KT 1 1/4SM BR CLR 01/00 A3018 RMK AO2 SLP224 I1000 T00060000
KRVS 180950Z AUTO 00000KT 1 3/4SM BR CLR 01/01 A3017 RMK AO2 I1000
KRVS 180853Z AUTO 00000KT 3SM BR CLR 02/01 A3019 RMK AO2 SLP229 T00170006 58006
KRVS 180753Z AUTO 00000KT 4SM BR CLR 02/01 A3020 RMK AO2 SLP234 T00170006
KRVS 180653Z AUTO 00000KT 6SM BR CLR 02/01 A3021 RMK AO2 SLP235 T00220011
KRVS 180553Z AUTO 00000KT 10SM CLR 03/02 A3021 RMK AO2 SLP236 T00280017 10128 20028 401610028 50000
KRVS 180453Z AUTO 00000KT 10SM CLR 03/02 A3021 RMK AO2 SLP239 T00280017
KRVS 180353Z 00000KT 10SM CLR 04/02 A3021 RMK AO2 SLP238 LAST T00440017
KRVS 180253Z 00000KT 10SM CLR 05/02 A3021 RMK AO2 SLP237 T00500022 51017
KRVS 180153Z 00000KT 10SM CLR 08/02 A3020 RMK AO2 SLP233 T00780022
KRVS 180053Z 00000KT 10SM CLR 09/02 A3018 RMK AO2 SLP225 T00890017
KRVS 172353Z 00000KT 10SM CLR 13/00 A3016 RMK AO2 SLP218 T01280000 10161 20106 51014
KRVS 172253Z 03003KT 10SM CLR 16/00 A3014 RMK AO2 SLP211 T01560000
KRVS 172153Z 01007KT 10SM CLR 16/M01 A3014 RMK AO2 SLP208 T01611006
KRVS 172053Z 00000KT 10SM CLR 14/03 A3012 RMK AO2 SLP204 T01440028 56003
KRVS 171953Z VRB04KT 10SM CLR 13/03 A3012 RMK AO2 SLP205 T01330033
KRVS 171853Z 35007KT 10SM CLR 12/04 A3012 RMK AO2 SLP205 T01220039
KRVS 171753Z VRB06KT 10SM CLR 11/04 A3013 RMK AO2 SLP208 T01060044 10106 20044 53010
KRVS 171653Z VRB04KT 10SM FEW016 08/04 A3011 RMK AO2 SLP204 T00780039
KRVS 171635Z VRB03KT 10SM SCT016 07/04 A3011 RMK AO2 T00720039
KRVS 171553Z VRB05KT 9SM BKN010 06/04 A3010 RMK AO2 CIG 007V013 SLP197 T00610044
KRVS 171549Z 24005KT 9SM OVC010 06/04 A3010 RMK AO2 CIG 007V013
KRVS 171453Z 25003KT 8SM OVC007 05/03 A3008 RMK AO2 CIG 006V010 SLP194 T00500033 51040
KRVS 171353Z 25003KT 6SM BR OVC006 04/03 A3004 RMK AO2 SLP181 T00440033
KRVS 171253Z 26003KT 8SM OVC007 04/04 A3006 RMK AO2 SLP185 T00440039
KRVS 171153Z AUTO 19008G16KT 10SM BKN007 BKN120 05/03 A2996 RMK AO2 RAE48 PRESRR SLP152 P0007 60053 70055 T00500033 10050 20033 56048
KRVS 171053Z AUTO 19003KT 4SM RA BR BKN006 BKN055 OVC075 04/03 A3001 RMK AO2 SLP171 P0011 T00390028
KRVS 171046Z AUTO 21004KT 4SM RA BR BKN005 BKN055 OVC075 03/03 A3002 RMK AO2 P0008 T00330028
KRVS 170953Z AUTO 17008KT 5SM RA BR FEW004 OVC070 03/02 A3004 RMK AO2 PRESFR SLP180 P0013 T00330022
KRVS 170942Z AUTO 17005KT 4SM RA BR FEW004 FEW030 OVC065 03/02 A3006 RMK AO2 PRESFR P0010 T00330022
KRVS 170934Z AUTO 17005KT 4SM RA BR FEW004 BKN028 OVC070 03/02 A3008 RMK AO2 PRESFR P0008 T00330022
KRVS 170853Z AUTO 00000KT 3SM RA BR FEW023 OVC029 03/02 A3011 RMK AO2 SLP203 P0014 60022 T00330022 55010
KRVS 170845Z AUTO 00000KT 3SM RA BR OVC029 03/02 A3010 RMK AO2 P0012 T00330022